Terminal Aerodrome Forecast
Issued by NWS

Home | Current Version | Previous Version | Text Only | Print | Product List | Glossary On
Versions: 1 2 3 4 5 6 7 8 9 10 11 12 13 14 15
000
FTUS41 KBTV 221729
TAFRUT
TAF
KRUT 221729Z 2218/2318 13007KT P6SM OVC035
     FM230200 12005KT 6SM -FZDZSN BR OVC015
     FM230500 12006KT 4SM -SNRA BR OVC010
     FM231300 14008KT 2SM -RA BR OVC015
      AMD LTD TO CLD VIS AND WIND=

USA.gov is the U.S. government's official web portal to all federal, state and local government web resources and services.